sensor_id;sensor_type;location;lat;lon;timestamp;P1;durP1;ratioP1;P2;durP2;ratioP2
50124;SDS011;36023;48.670;6.184;2023-06-14T00:01:06;1.92;;;1.40;;
50124;SDS011;36023;48.670;6.184;2023-06-14T00:03:31;1.60;;;0.98;;
50124;SDS011;36023;48.670;6.184;2023-06-14T00:05:58;3.17;;;1.50;;
50124;SDS011;36023;48.670;6.184;2023-06-14T00:08:23;1.85;;;1.25;;
50124;SDS011;36023;48.670;6.184;2023-06-14T00:10:50;2.30;;;1.48;;
50124;SDS011;36023;48.670;6.184;2023-06-14T00:13:16;2.20;;;1.48;;
50124;SDS011;36023;48.670;6.184;2023-06-14T00:15:42;2.50;;;1.10;;
50124;SDS011;36023;48.670;6.184;2023-06-14T00:18:08;2.30;;;1.40;;
50124;SDS011;36023;48.670;6.184;2023-06-14T00:20:36;2.22;;;1.33;;
50124;SDS011;36023;48.670;6.184;2023-06-14T00:23:02;2.35;;;1.20;;
50124;SDS011;36023;48.670;6.184;2023-06-14T00:25:28;2.80;;;1.77;;
50124;SDS011;36023;48.670;6.184;2023-06-14T00:27:55;2.03;;;1.42;;
50124;SDS011;36023;48.670;6.184;2023-06-14T00:30:21;2.10;;;1.40;;
50124;SDS011;36023;48.670;6.184;2023-06-14T00:32:49;1.85;;;1.17;;
50124;SDS011;36023;48.670;6.184;2023-06-14T00:35:16;3.05;;;1.77;;
50124;SDS011;36023;48.670;6.184;2023-06-14T00:37:42;2.33;;;1.35;;
50124;SDS011;36023;48.670;6.184;2023-06-14T00:40:08;3.75;;;1.55;;
50124;SDS011;36023;48.670;6.184;2023-06-14T00:42:34;4.20;;;1.83;;
50124;SDS011;36023;48.670;6.184;2023-06-14T00:45:01;3.95;;;1.58;;
50124;SDS011;36023;48.670;6.184;2023-06-14T00:47:28;2.30;;;1.20;;
50124;SDS011;36023;48.670;6.184;2023-06-14T00:49:54;2.08;;;1.30;;
50124;SDS011;36023;48.670;6.184;2023-06-14T00:52:22;1.65;;;1.35;;
50124;SDS011;36023;48.670;6.184;2023-06-14T00:54:50;3.60;;;1.60;;
50124;SDS011;36023;48.670;6.184;2023-06-14T00:57:17;2.53;;;1.60;;
50124;SDS011;36023;48.670;6.184;2023-06-14T00:59:44;2.28;;;1.35;;
50124;SDS011;36023;48.670;6.184;2023-06-14T01:02:12;2.05;;;1.27;;
50124;SDS011;36023;48.670;6.184;2023-06-14T01:04:40;3.78;;;1.48;;
50124;SDS011;36023;48.670;6.184;2023-06-14T01:07:15;2.80;;;1.30;;
50124;SDS011;36023;48.670;6.184;2023-06-14T01:15:36;2.65;;;1.48;;
50124;SDS011;36023;48.670;6.184;2023-06-14T01:18:05;3.92;;;1.80;;
50124;SDS011;36023;48.670;6.184;2023-06-14T01:20:35;3.85;;;1.52;;
50124;SDS011;36023;48.670;6.184;2023-06-14T01:23:03;3.47;;;2.17;;
50124;SDS011;36023;48.670;6.184;2023-06-14T01:25:29;5.20;;;1.63;;
50124;SDS011;36023;48.670;6.184;2023-06-14T01:27:56;2.95;;;1.40;;
50124;SDS011;36023;48.670;6.184;2023-06-14T01:30:25;2.58;;;1.45;;
50124;SDS011;36023;48.670;6.184;2023-06-14T01:32:54;2.17;;;1.35;;
50124;SDS011;36023;48.670;6.184;2023-06-14T01:35:21;4.03;;;1.58;;
50124;SDS011;36023;48.670;6.184;2023-06-14T01:37:48;2.60;;;1.50;;
50124;SDS011;36023;48.670;6.184;2023-06-14T01:40:15;3.55;;;1.75;;
50124;SDS011;36023;48.670;6.184;2023-06-14T01:42:42;2.72;;;1.42;;
50124;SDS011;36023;48.670;6.184;2023-06-14T01:45:09;3.25;;;1.50;;
50124;SDS011;36023;48.670;6.184;2023-06-14T01:47:36;2.30;;;1.45;;
50124;SDS011;36023;48.670;6.184;2023-06-14T01:50:02;3.70;;;1.60;;
50124;SDS011;36023;48.670;6.184;2023-06-14T01:52:30;2.10;;;1.33;;
50124;SDS011;36023;48.670;6.184;2023-06-14T01:54:55;2.70;;;1.60;;
50124;SDS011;36023;48.670;6.184;2023-06-14T01:57:24;2.17;;;1.50;;
50124;SDS011;36023;48.670;6.184;2023-06-14T01:59:53;2.58;;;1.83;;
50124;SDS011;36023;48.670;6.184;2023-06-14T02:02:19;2.25;;;1.25;;
50124;SDS011;36023;48.670;6.184;2023-06-14T02:04:44;2.47;;;1.48;;
50124;SDS011;36023;48.670;6.184;2023-06-14T02:07:12;2.88;;;1.35;;
50124;SDS011;36023;48.670;6.184;2023-06-14T02:09:41;4.72;;;1.65;;
50124;SDS011;36023;48.670;6.184;2023-06-14T02:12:07;2.55;;;1.80;;
50124;SDS011;36023;48.670;6.184;2023-06-14T02:14:33;2.47;;;1.50;;
50124;SDS011;36023;48.670;6.184;2023-06-14T02:16:59;2.83;;;1.33;;
50124;SDS011;36023;48.670;6.184;2023-06-14T02:19:26;2.80;;;1.60;;
50124;SDS011;36023;48.670;6.184;2023-06-14T02:21:52;2.88;;;1.77;;
50124;SDS011;36023;48.670;6.184;2023-06-14T02:24:18;3.72;;;1.52;;
50124;SDS011;36023;48.670;6.184;2023-06-14T02:26:43;5.07;;;1.88;;
50124;SDS011;36023;48.670;6.184;2023-06-14T02:29:13;4.38;;;1.95;;
50124;SDS011;36023;48.670;6.184;2023-06-14T02:31:40;4.97;;;1.52;;
50124;SDS011;36023;48.670;6.184;2023-06-14T02:34:07;3.28;;;2.15;;
50124;SDS011;36023;48.670;6.184;2023-06-14T02:36:35;4.82;;;1.65;;
50124;SDS011;36023;48.670;6.184;2023-06-14T02:39:08;2.53;;;1.60;;
50124;SDS011;36023;48.670;6.184;2023-06-14T02:41:39;3.53;;;1.40;;
50124;SDS011;36023;48.670;6.184;2023-06-14T02:44:05;3.22;;;1.85;;
50124;SDS011;36023;48.670;6.184;2023-06-14T02:46:33;2.67;;;1.80;;
50124;SDS011;36023;48.670;6.184;2023-06-14T02:48:59;2.42;;;1.45;;
50124;SDS011;36023;48.670;6.184;2023-06-14T02:51:25;2.05;;;1.40;;
50124;SDS011;36023;48.670;6.184;2023-06-14T02:53:51;3.35;;;1.60;;
50124;SDS011;36023;48.670;6.184;2023-06-14T02:56:16;4.45;;;1.45;;
50124;SDS011;36023;48.670;6.184;2023-06-14T02:58:43;3.08;;;2.10;;
50124;SDS011;36023;48.670;6.184;2023-06-14T03:01:10;4.38;;;1.67;;
50124;SDS011;36023;48.670;6.184;2023-06-14T03:03:38;3.20;;;1.67;;
50124;SDS011;36023;48.670;6.184;2023-06-14T03:06:04;2.80;;;1.48;;
50124;SDS011;36023;48.670;6.184;2023-06-14T03:08:32;7.20;;;2.17;;
50124;SDS011;36023;48.670;6.184;2023-06-14T03:11:04;12.18;;;2.45;;
50124;SDS011;36023;48.670;6.184;2023-06-14T03:13:35;6.22;;;1.77;;
50124;SDS011;36023;48.670;6.184;2023-06-14T03:16:02;3.00;;;1.80;;
50124;SDS011;36023;48.670;6.184;2023-06-14T03:18:29;2.95;;;1.60;;
50124;SDS011;36023;48.670;6.184;2023-06-14T03:20:56;1.63;;;1.40;;
50124;SDS011;36023;48.670;6.184;2023-06-14T03:23:24;6.10;;;1.80;;
50124;SDS011;36023;48.670;6.184;2023-06-14T03:25:50;2.55;;;1.58;;
50124;SDS011;36023;48.670;6.184;2023-06-14T03:28:16;4.32;;;2.08;;
50124;SDS011;36023;48.670;6.184;2023-06-14T03:30:42;2.35;;;1.30;;
50124;SDS011;36023;48.670;6.184;2023-06-14T03:33:10;2.53;;;1.67;;
50124;SDS011;36023;48.670;6.184;2023-06-14T03:35:38;2.60;;;1.60;;
50124;SDS011;36023;48.670;6.184;2023-06-14T03:38:04;2.20;;;1.52;;
50124;SDS011;36023;48.670;6.184;2023-06-14T03:40:30;1.95;;;1.35;;
50124;SDS011;36023;48.670;6.184;2023-06-14T03:43:02;2.92;;;1.27;;
50124;SDS011;36023;48.670;6.184;2023-06-14T03:45:28;2.42;;;1.70;;
50124;SDS011;36023;48.670;6.184;2023-06-14T03:47:55;5.35;;;1.58;;
50124;SDS011;36023;48.670;6.184;2023-06-14T03:50:23;2.92;;;1.73;;
50124;SDS011;36023;48.670;6.184;2023-06-14T03:52:49;2.88;;;1.60;;
50124;SDS011;36023;48.670;6.184;2023-06-14T03:55:16;2.50;;;1.30;;
50124;SDS011;36023;48.670;6.184;2023-06-14T03:57:43;1.95;;;1.52;;
50124;SDS011;36023;48.670;6.184;2023-06-14T04:00:17;3.83;;;1.20;;
50124;SDS011;36023;48.670;6.184;2023-06-14T04:02:43;3.45;;;1.30;;
50124;SDS011;36023;48.670;6.184;2023-06-14T04:05:10;2.90;;;1.60;;
50124;SDS011;36023;48.670;6.184;2023-06-14T04:07:38;3.42;;;1.65;;
50124;SDS011;36023;48.670;6.184;2023-06-14T04:10:11;2.53;;;1.40;;
50124;SDS011;36023;48.670;6.184;2023-06-14T04:12:38;6.55;;;1.83;;
50124;SDS011;36023;48.670;6.184;2023-06-14T04:15:04;2.95;;;1.70;;
50124;SDS011;36023;48.670;6.184;2023-06-14T04:17:37;2.47;;;1.60;;
50124;SDS011;36023;48.670;6.184;2023-06-14T04:20:05;2.00;;;1.50;;
50124;SDS011;36023;48.670;6.184;2023-06-14T04:22:33;4.22;;;1.55;;
50124;SDS011;36023;48.670;6.184;2023-06-14T04:25:00;2.65;;;1.52;;
50124;SDS011;36023;48.670;6.184;2023-06-14T04:27:27;5.22;;;1.80;;
50124;SDS011;36023;48.670;6.184;2023-06-14T04:29:53;3.65;;;1.83;;
50124;SDS011;36023;48.670;6.184;2023-06-14T04:32:28;1.67;;;1.27;;
50124;SDS011;36023;48.670;6.184;2023-06-14T04:34:59;2.95;;;1.60;;
50124;SDS011;36023;48.670;6.184;2023-06-14T04:37:28;2.47;;;1.58;;
50124;SDS011;36023;48.670;6.184;2023-06-14T04:39:56;2.92;;;1.60;;
50124;SDS011;36023;48.670;6.184;2023-06-14T04:42:22;3.40;;;2.10;;
50124;SDS011;36023;48.670;6.184;2023-06-14T04:44:57;2.70;;;1.48;;
50124;SDS011;36023;48.670;6.184;2023-06-14T04:47:24;2.72;;;1.45;;
50124;SDS011;36023;48.670;6.184;2023-06-14T04:49:57;3.63;;;1.73;;
50124;SDS011;36023;48.670;6.184;2023-06-14T04:52:23;3.45;;;1.70;;
50124;SDS011;36023;48.670;6.184;2023-06-14T04:54:52;6.22;;;2.22;;
50124;SDS011;36023;48.670;6.184;2023-06-14T04:57:20;3.22;;;1.80;;
50124;SDS011;36023;48.670;6.184;2023-06-14T04:59:49;4.03;;;2.30;;
50124;SDS011;36023;48.670;6.184;2023-06-14T05:02:21;3.92;;;1.70;;
50124;SDS011;36023;48.670;6.184;2023-06-14T05:04:48;6.00;;;1.83;;
50124;SDS011;36023;48.670;6.184;2023-06-14T05:07:14;4.60;;;2.45;;
50124;SDS011;36023;48.670;6.184;2023-06-14T05:09:41;5.63;;;2.17;;
50124;SDS011;36023;48.670;6.184;2023-06-14T05:12:07;4.32;;;2.22;;
50124;SDS011;36023;48.670;6.184;2023-06-14T05:14:36;3.17;;;1.85;;
50124;SDS011;36023;48.670;6.184;2023-06-14T05:17:03;2.83;;;1.90;;
50124;SDS011;36023;48.670;6.184;2023-06-14T05:19:30;3.85;;;1.92;;
50124;SDS011;36023;48.670;6.184;2023-06-14T05:21:55;5.55;;;2.08;;
50124;SDS011;36023;48.670;6.184;2023-06-14T05:24:21;3.70;;;1.58;;
50124;SDS011;36023;48.670;6.184;2023-06-14T05:26:47;3.47;;;1.70;;
50124;SDS011;36023;48.670;6.184;2023-06-14T05:29:14;3.33;;;1.52;;
50124;SDS011;36023;48.670;6.184;2023-06-14T05:31:39;2.72;;;1.60;;
50124;SDS011;36023;48.670;6.184;2023-06-14T05:34:05;2.42;;;1.92;;
50124;SDS011;36023;48.670;6.184;2023-06-14T05:36:31;3.88;;;2.03;;
50124;SDS011;36023;48.670;6.184;2023-06-14T05:38:56;2.40;;;1.63;;
50124;SDS011;36023;48.670;6.184;2023-06-14T05:41:25;3.03;;;1.52;;
50124;SDS011;36023;48.670;6.184;2023-06-14T05:43:53;7.22;;;2.85;;
50124;SDS011;36023;48.670;6.184;2023-06-14T05:46:20;4.00;;;1.52;;
50124;SDS011;36023;48.670;6.184;2023-06-14T05:48:49;2.03;;;1.40;;
50124;SDS011;36023;48.670;6.184;2023-06-14T05:51:15;8.73;;;1.50;;
50124;SDS011;36023;48.670;6.184;2023-06-14T05:53:47;5.45;;;1.20;;
50124;SDS011;36023;48.670;6.184;2023-06-14T05:56:13;1.38;;;0.95;;
50124;SDS011;36023;48.670;6.184;2023-06-14T05:58:40;1.55;;;1.20;;
50124;SDS011;36023;48.670;6.184;2023-06-14T06:01:09;3.03;;;1.20;;
50124;SDS011;36023;48.670;6.184;2023-06-14T06:03:35;4.82;;;1.08;;
50124;SDS011;36023;48.670;6.184;2023-06-14T06:06:01;3.20;;;1.08;;
50124;SDS011;36023;48.670;6.184;2023-06-14T06:08:28;2.20;;;1.15;;
50124;SDS011;36023;48.670;6.184;2023-06-14T06:10:54;2.33;;;1.10;;
50124;SDS011;36023;48.670;6.184;2023-06-14T06:13:19;2.25;;;0.90;;
50124;SDS011;36023;48.670;6.184;2023-06-14T06:15:45;2.70;;;1.30;;
50124;SDS011;36023;48.670;6.184;2023-06-14T06:18:11;4.95;;;1.23;;
50124;SDS011;36023;48.670;6.184;2023-06-14T06:20:38;2.63;;;1.58;;
50124;SDS011;36023;48.670;6.184;2023-06-14T06:23:04;1.52;;;0.95;;
50124;SDS011;36023;48.670;6.184;2023-06-14T06:25:29;3.58;;;1.15;;
50124;SDS011;36023;48.670;6.184;2023-06-14T06:27:57;2.75;;;1.08;;
50124;SDS011;36023;48.670;6.184;2023-06-14T06:30:24;2.03;;;1.35;;
50124;SDS011;36023;48.670;6.184;2023-06-14T06:32:50;4.18;;;1.23;;
50124;SDS011;36023;48.670;6.184;2023-06-14T06:35:16;2.00;;;0.93;;
50124;SDS011;36023;48.670;6.184;2023-06-14T06:37:42;2.20;;;1.00;;
50124;SDS011;36023;48.670;6.184;2023-06-14T06:40:08;3.10;;;1.30;;
50124;SDS011;36023;48.670;6.184;2023-06-14T06:42:35;1.58;;;1.15;;
50124;SDS011;36023;48.670;6.184;2023-06-14T06:45:03;1.75;;;1.00;;
50124;SDS011;36023;48.670;6.184;2023-06-14T06:47:33;1.75;;;1.13;;
50124;SDS011;36023;48.670;6.184;2023-06-14T06:49:59;1.23;;;0.98;;
50124;SDS011;36023;48.670;6.184;2023-06-14T06:52:25;1.98;;;1.02;;
50124;SDS011;36023;48.670;6.184;2023-06-14T06:54:50;1.38;;;1.02;;
50124;SDS011;36023;48.670;6.184;2023-06-14T06:57:20;3.30;;;1.02;;
50124;SDS011;36023;48.670;6.184;2023-06-14T06:59:50;2.67;;;1.00;;
50124;SDS011;36023;48.670;6.184;2023-06-14T07:02:15;2.35;;;1.10;;
50124;SDS011;36023;48.670;6.184;2023-06-14T07:04:41;1.15;;;0.80;;
50124;SDS011;36023;48.670;6.184;2023-06-14T07:07:07;2.35;;;1.40;;
50124;SDS011;36023;48.670;6.184;2023-06-14T07:09:34;1.48;;;0.88;;
50124;SDS011;36023;48.670;6.184;2023-06-14T07:12:00;1.40;;;0.90;;
50124;SDS011;36023;48.670;6.184;2023-06-14T07:14:26;1.75;;;1.00;;
50124;SDS011;36023;48.670;6.184;2023-06-14T07:16:51;3.13;;;1.40;;
50124;SDS011;36023;48.670;6.184;2023-06-14T07:19:17;1.70;;;0.93;;
50124;SDS011;36023;48.670;6.184;2023-06-14T07:21:44;1.20;;;0.90;;
50124;SDS011;36023;48.670;6.184;2023-06-14T07:24:10;1.48;;;1.13;;
50124;SDS011;36023;48.670;6.184;2023-06-14T07:26:35;1.83;;;0.85;;
50124;SDS011;36023;48.670;6.184;2023-06-14T07:29:01;3.75;;;1.13;;
50124;SDS011;36023;48.670;6.184;2023-06-14T07:31:27;3.28;;;0.85;;
50124;SDS011;36023;48.670;6.184;2023-06-14T07:33:53;1.85;;;1.38;;
50124;SDS011;36023;48.670;6.184;2023-06-14T07:36:19;2.30;;;1.00;;
50124;SDS011;36023;48.670;6.184;2023-06-14T07:38:45;1.80;;;1.05;;
50124;SDS011;36023;48.670;6.184;2023-06-14T07:41:11;1.70;;;1.15;;
50124;SDS011;36023;48.670;6.184;2023-06-14T07:43:37;4.95;;;1.10;;
50124;SDS011;36023;48.670;6.184;2023-06-14T07:46:05;0.93;;;0.80;;
50124;SDS011;36023;48.670;6.184;2023-06-14T07:48:31;1.60;;;0.95;;
50124;SDS011;36023;48.670;6.184;2023-06-14T07:50:56;1.20;;;0.95;;
50124;SDS011;36023;48.670;6.184;2023-06-14T07:53:22;1.48;;;1.00;;
50124;SDS011;36023;48.670;6.184;2023-06-14T07:55:48;1.77;;;0.80;;
50124;SDS011;36023;48.670;6.184;2023-06-14T07:58:14;3.75;;;1.02;;
50124;SDS011;36023;48.670;6.184;2023-06-14T08:00:40;1.52;;;0.90;;
50124;SDS011;36023;48.670;6.184;2023-06-14T08:03:06;1.90;;;0.80;;
50124;SDS011;36023;48.670;6.184;2023-06-14T08:05:31;2.40;;;1.08;;
50124;SDS011;36023;48.670;6.184;2023-06-14T08:07:57;1.40;;;1.08;;
50124;SDS011;36023;48.670;6.184;2023-06-14T08:10:23;1.10;;;0.98;;
50124;SDS011;36023;48.670;6.184;2023-06-14T08:12:48;1.65;;;1.00;;
50124;SDS011;36023;48.670;6.184;2023-06-14T08:15:15;2.08;;;0.98;;
50124;SDS011;36023;48.670;6.184;2023-06-14T08:17:44;1.42;;;0.73;;
50124;SDS011;36023;48.670;6.184;2023-06-14T08:20:11;2.05;;;0.70;;
50124;SDS011;36023;48.670;6.184;2023-06-14T08:22:39;2.13;;;0.93;;
50124;SDS011;36023;48.670;6.184;2023-06-14T08:25:07;3.58;;;0.90;;
50124;SDS011;36023;48.670;6.184;2023-06-14T08:27:34;1.65;;;1.08;;
50124;SDS011;36023;48.670;6.184;2023-06-14T08:29:59;1.80;;;1.13;;
50124;SDS011;36023;48.670;6.184;2023-06-14T08:32:25;2.47;;;1.00;;
50124;SDS011;36023;48.670;6.184;2023-06-14T08:34:52;2.72;;;0.88;;
50124;SDS011;36023;48.670;6.184;2023-06-14T08:37:17;1.48;;;0.95;;
50124;SDS011;36023;48.670;6.184;2023-06-14T08:39:43;1.70;;;0.90;;
50124;SDS011;36023;48.670;6.184;2023-06-14T08:42:09;1.40;;;0.85;;
50124;SDS011;36023;48.670;6.184;2023-06-14T08:44:35;1.50;;;0.80;;
50124;SDS011;36023;48.670;6.184;2023-06-14T08:47:01;1.30;;;0.80;;
50124;SDS011;36023;48.670;6.184;2023-06-14T08:49:31;1.90;;;0.70;;
50124;SDS011;36023;48.670;6.184;2023-06-14T08:51:58;0.90;;;0.80;;
50124;SDS011;36023;48.670;6.184;2023-06-14T08:54:25;3.33;;;0.82;;
50124;SDS011;36023;48.670;6.184;2023-06-14T08:56:53;1.02;;;0.65;;
50124;SDS011;36023;48.670;6.184;2023-06-14T08:59:28;1.48;;;0.88;;
50124;SDS011;36023;48.670;6.184;2023-06-14T09:01:57;1.92;;;0.80;;
50124;SDS011;36023;48.670;6.184;2023-06-14T09:04:25;1.83;;;0.80;;
50124;SDS011;36023;48.670;6.184;2023-06-14T09:06:55;3.22;;;0.80;;
50124;SDS011;36023;48.670;6.184;2023-06-14T09:09:21;1.30;;;0.90;;
50124;SDS011;36023;48.670;6.184;2023-06-14T09:11:51;2.25;;;1.38;;
50124;SDS011;36023;48.670;6.184;2023-06-14T09:14:23;1.48;;;0.85;;
50124;SDS011;36023;48.670;6.184;2023-06-14T09:16:52;1.65;;;0.90;;
50124;SDS011;36023;48.670;6.184;2023-06-14T09:19:25;2.08;;;1.00;;
50124;SDS011;36023;48.670;6.184;2023-06-14T09:21:52;1.40;;;0.80;;
50124;SDS011;36023;48.670;6.184;2023-06-14T09:24:18;1.33;;;0.85;;
50124;SDS011;36023;48.670;6.184;2023-06-14T09:26:46;2.00;;;0.80;;
50124;SDS011;36023;48.670;6.184;2023-06-14T09:29:12;1.40;;;0.73;;
50124;SDS011;36023;48.670;6.184;2023-06-14T09:31:38;1.83;;;0.88;;
50124;SDS011;36023;48.670;6.184;2023-06-14T09:34:04;1.98;;;1.17;;
50124;SDS011;36023;48.670;6.184;2023-06-14T09:36:31;2.33;;;0.85;;
50124;SDS011;36023;48.670;6.184;2023-06-14T09:38:58;1.15;;;0.88;;
50124;SDS011;36023;48.670;6.184;2023-06-14T09:41:38;1.60;;;0.80;;
50124;SDS011;36023;48.670;6.184;2023-06-14T09:44:08;1.17;;;0.80;;
50124;SDS011;36023;48.670;6.184;2023-06-14T09:46:36;2.92;;;0.82;;
50124;SDS011;36023;48.670;6.184;2023-06-14T09:49:02;1.08;;;0.90;;
50124;SDS011;36023;48.670;6.184;2023-06-14T09:51:29;1.20;;;0.95;;
50124;SDS011;36023;48.670;6.184;2023-06-14T09:53:59;1.80;;;0.90;;
50124;SDS011;36023;48.670;6.184;2023-06-14T09:56:27;1.63;;;0.80;;
50124;SDS011;36023;48.670;6.184;2023-06-14T09:58:55;2.00;;;0.88;;
50124;SDS011;36023;48.670;6.184;2023-06-14T10:01:27;1.42;;;0.82;;
50124;SDS011;36023;48.670;6.184;2023-06-14T10:03:58;2.35;;;1.00;;
50124;SDS011;36023;48.670;6.184;2023-06-14T10:06:28;1.77;;;0.95;;
50124;SDS011;36023;48.670;6.184;2023-06-14T10:08:59;2.50;;;1.30;;
50124;SDS011;36023;48.670;6.184;2023-06-14T10:11:25;4.38;;;1.38;;
50124;SDS011;36023;48.670;6.184;2023-06-14T10:13:55;3.28;;;0.85;;
50124;SDS011;36023;48.670;6.184;2023-06-14T10:16:32;1.58;;;0.95;;
50124;SDS011;36023;48.670;6.184;2023-06-14T10:24:29;1.80;;;1.27;;
50124;SDS011;36023;48.670;6.184;2023-06-14T10:26:58;2.30;;;1.02;;
50124;SDS011;36023;48.670;6.184;2023-06-14T10:29:25;1.80;;;0.70;;
50124;SDS011;36023;48.670;6.184;2023-06-14T10:31:55;3.42;;;0.85;;
50124;SDS011;36023;48.670;6.184;2023-06-14T10:34:27;1.30;;;0.90;;
50124;SDS011;36023;48.670;6.184;2023-06-14T10:37:01;2.75;;;1.13;;
50124;SDS011;36023;48.670;6.184;2023-06-14T10:39:36;2.67;;;0.82;;
50124;SDS011;36023;48.670;6.184;2023-06-14T10:42:12;2.00;;;1.05;;
50124;SDS011;36023;48.670;6.184;2023-06-14T10:44:43;1.08;;;0.88;;
50124;SDS011;36023;48.670;6.184;2023-06-14T10:47:31;1.17;;;0.80;;
50124;SDS011;36023;48.670;6.184;2023-06-14T10:50:09;1.00;;;0.70;;
50124;SDS011;36023;48.670;6.184;2023-06-14T10:52:39;1.35;;;0.98;;
50124;SDS011;36023;48.670;6.184;2023-06-14T10:55:18;2.92;;;1.13;;
50124;SDS011;36023;48.670;6.184;2023-06-14T10:57:46;4.43;;;0.95;;
50124;SDS011;36023;48.670;6.184;2023-06-14T11:00:17;4.03;;;0.80;;
50124;SDS011;36023;48.670;6.184;2023-06-14T11:05:25;1.92;;;1.20;;
50124;SDS011;36023;48.670;6.184;2023-06-14T11:10:41;3.28;;;0.93;;
50124;SDS011;36023;48.670;6.184;2023-06-14T11:13:08;3.63;;;0.85;;
50124;SDS011;36023;48.670;6.184;2023-06-14T11:15:35;2.63;;;0.93;;
50124;SDS011;36023;48.670;6.184;2023-06-14T11:18:02;1.13;;;0.90;;
50124;SDS011;36023;48.670;6.184;2023-06-14T11:20:31;2.22;;;0.98;;
50124;SDS011;36023;48.670;6.184;2023-06-14T11:22:58;1.98;;;1.10;;
50124;SDS011;36023;48.670;6.184;2023-06-14T11:25:24;1.25;;;1.05;;
50124;SDS011;36023;48.670;6.184;2023-06-14T11:27:51;3.17;;;1.60;;
50124;SDS011;36023;48.670;6.184;2023-06-14T11:30:17;1.55;;;1.30;;
50124;SDS011;36023;48.670;6.184;2023-06-14T11:32:46;2.22;;;1.30;;
50124;SDS011;36023;48.670;6.184;2023-06-14T11:35:15;1.52;;;0.98;;
50124;SDS011;36023;48.670;6.184;2023-06-14T11:37:42;3.70;;;0.95;;
50124;SDS011;36023;48.670;6.184;2023-06-14T11:40:09;1.83;;;1.02;;
50124;SDS011;36023;48.670;6.184;2023-06-14T11:42:39;1.52;;;0.95;;
50124;SDS011;36023;48.670;6.184;2023-06-14T11:45:12;1.90;;;1.40;;
50124;SDS011;36023;48.670;6.184;2023-06-14T11:47:39;3.47;;;1.05;;
50124;SDS011;36023;48.670;6.184;2023-06-14T11:50:07;2.30;;;1.38;;
50124;SDS011;36023;48.670;6.184;2023-06-14T11:52:36;1.50;;;1.08;;
50124;SDS011;36023;48.670;6.184;2023-06-14T11:55:02;2.20;;;1.20;;
50124;SDS011;36023;48.670;6.184;2023-06-14T11:57:34;1.48;;;0.85;;
50124;SDS011;36023;48.670;6.184;2023-06-14T12:00:11;1.98;;;1.10;;
50124;SDS011;36023;48.670;6.184;2023-06-14T12:02:37;2.13;;;0.90;;
50124;SDS011;36023;48.670;6.184;2023-06-14T12:05:05;1.42;;;0.85;;
50124;SDS011;36023;48.670;6.184;2023-06-14T12:07:37;1.10;;;0.70;;
50124;SDS011;36023;48.670;6.184;2023-06-14T12:10:06;1.15;;;0.73;;
50124;SDS011;36023;48.670;6.184;2023-06-14T12:12:39;2.15;;;0.85;;
50124;SDS011;36023;48.670;6.184;2023-06-14T12:15:05;1.65;;;0.77;;
50124;SDS011;36023;48.670;6.184;2023-06-14T12:17:35;2.78;;;1.02;;
50124;SDS011;36023;48.670;6.184;2023-06-14T12:20:06;1.83;;;0.80;;
50124;SDS011;36023;48.670;6.184;2023-06-14T12:22:37;1.30;;;0.88;;
50124;SDS011;36023;48.670;6.184;2023-06-14T12:25:03;1.25;;;1.00;;
50124;SDS011;36023;48.670;6.184;2023-06-14T12:27:30;2.75;;;1.17;;
50124;SDS011;36023;48.670;6.184;2023-06-14T12:30:02;1.02;;;0.65;;
50124;SDS011;36023;48.670;6.184;2023-06-14T12:32:31;2.58;;;1.00;;
50124;SDS011;36023;48.670;6.184;2023-06-14T12:34:57;1.35;;;0.70;;
50124;SDS011;36023;48.670;6.184;2023-06-14T12:37:23;2.65;;;1.20;;
50124;SDS011;36023;48.670;6.184;2023-06-14T12:39:48;1.45;;;0.93;;
50124;SDS011;36023;48.670;6.184;2023-06-14T12:42:16;1.83;;;0.95;;
50124;SDS011;36023;48.670;6.184;2023-06-14T12:44:41;1.60;;;0.68;;
50124;SDS011;36023;48.670;6.184;2023-06-14T12:47:08;1.65;;;0.90;;
50124;SDS011;36023;48.670;6.184;2023-06-14T12:49:34;0.93;;;0.70;;
50124;SDS011;36023;48.670;6.184;2023-06-14T12:52:00;1.20;;;0.82;;
50124;SDS011;36023;48.670;6.184;2023-06-14T12:54:26;1.13;;;0.63;;
50124;SDS011;36023;48.670;6.184;2023-06-14T12:56:51;2.95;;;0.93;;
50124;SDS011;36023;48.670;6.184;2023-06-14T12:59:18;1.35;;;0.77;;
50124;SDS011;36023;48.670;6.184;2023-06-14T13:01:45;3.42;;;1.35;;
50124;SDS011;36023;48.670;6.184;2023-06-14T13:04:12;1.77;;;0.70;;
50124;SDS011;36023;48.670;6.184;2023-06-14T13:06:38;2.50;;;1.02;;
50124;SDS011;36023;48.670;6.184;2023-06-14T13:09:04;2.63;;;0.82;;
50124;SDS011;36023;48.670;6.184;2023-06-14T13:11:30;1.60;;;0.60;;
50124;SDS011;36023;48.670;6.184;2023-06-14T13:13:56;1.92;;;1.00;;
50124;SDS011;36023;48.670;6.184;2023-06-14T13:16:22;1.85;;;0.80;;
50124;SDS011;36023;48.670;6.184;2023-06-14T13:18:47;1.83;;;0.73;;
50124;SDS011;36023;48.670;6.184;2023-06-14T13:21:14;1.75;;;0.60;;
50124;SDS011;36023;48.670;6.184;2023-06-14T13:23:40;1.10;;;0.75;;
50124;SDS011;36023;48.670;6.184;2023-06-14T13:26:05;1.40;;;0.75;;
50124;SDS011;36023;48.670;6.184;2023-06-14T13:28:31;1.55;;;0.82;;
50124;SDS011;36023;48.670;6.184;2023-06-14T13:30:57;1.15;;;0.75;;
50124;SDS011;36023;48.670;6.184;2023-06-14T13:33:24;1.58;;;0.65;;
50124;SDS011;36023;48.670;6.184;2023-06-14T13:35:50;1.00;;;0.63;;
50124;SDS011;36023;48.670;6.184;2023-06-14T13:38:18;1.25;;;0.80;;
50124;SDS011;36023;48.670;6.184;2023-06-14T13:40:43;1.23;;;0.93;;
50124;SDS011;36023;48.670;6.184;2023-06-14T13:43:09;1.55;;;0.68;;
50124;SDS011;36023;48.670;6.184;2023-06-14T13:45:36;1.48;;;0.70;;
50124;SDS011;36023;48.670;6.184;2023-06-14T13:48:02;2.08;;;0.90;;
50124;SDS011;36023;48.670;6.184;2023-06-14T13:50:30;2.03;;;0.90;;
50124;SDS011;36023;48.670;6.184;2023-06-14T13:52:55;1.73;;;0.95;;
50124;SDS011;36023;48.670;6.184;2023-06-14T13:55:21;2.13;;;0.60;;
50124;SDS011;36023;48.670;6.184;2023-06-14T13:57:46;1.98;;;1.20;;
50124;SDS011;36023;48.670;6.184;2023-06-14T14:00:12;1.20;;;0.80;;
50124;SDS011;36023;48.670;6.184;2023-06-14T14:02:38;1.88;;;0.70;;
50124;SDS011;36023;48.670;6.184;2023-06-14T14:05:05;1.05;;;0.60;;
50124;SDS011;36023;48.670;6.184;2023-06-14T14:07:31;1.85;;;0.93;;
50124;SDS011;36023;48.670;6.184;2023-06-14T14:09:56;1.70;;;0.93;;
50124;SDS011;36023;48.670;6.184;2023-06-14T14:12:23;1.58;;;1.05;;
50124;SDS011;36023;48.670;6.184;2023-06-14T14:14:48;1.30;;;0.80;;
50124;SDS011;36023;48.670;6.184;2023-06-14T14:17:15;1.92;;;0.90;;
50124;SDS011;36023;48.670;6.184;2023-06-14T14:19:41;1.02;;;0.70;;
50124;SDS011;36023;48.670;6.184;2023-06-14T14:22:07;1.27;;;1.00;;
50124;SDS011;36023;48.670;6.184;2023-06-14T14:24:34;1.10;;;0.73;;
50124;SDS011;36023;48.670;6.184;2023-06-14T14:27:00;1.33;;;0.75;;
50124;SDS011;36023;48.670;6.184;2023-06-14T14:29:25;0.80;;;0.60;;
50124;SDS011;36023;48.670;6.184;2023-06-14T14:31:54;1.45;;;0.85;;
50124;SDS011;36023;48.670;6.184;2023-06-14T14:34:23;1.33;;;0.90;;
50124;SDS011;36023;48.670;6.184;2023-06-14T14:36:49;1.20;;;1.00;;
50124;SDS011;36023;48.670;6.184;2023-06-14T14:39:15;1.77;;;0.73;;
50124;SDS011;36023;48.670;6.184;2023-06-14T14:41:41;0.82;;;0.60;;
50124;SDS011;36023;48.670;6.184;2023-06-14T14:44:07;1.17;;;0.82;;
50124;SDS011;36023;48.670;6.184;2023-06-14T14:46:33;1.98;;;0.85;;
50124;SDS011;36023;48.670;6.184;2023-06-14T14:48:59;1.33;;;0.80;;
50124;SDS011;36023;48.670;6.184;2023-06-14T14:51:26;0.85;;;0.60;;
50124;SDS011;36023;48.670;6.184;2023-06-14T14:53:52;2.35;;;0.77;;
50124;SDS011;36023;48.670;6.184;2023-06-14T14:56:18;1.13;;;0.70;;
50124;SDS011;36023;48.670;6.184;2023-06-14T14:58:44;0.80;;;0.65;;
50124;SDS011;36023;48.670;6.184;2023-06-14T15:01:10;2.60;;;0.82;;
50124;SDS011;36023;48.670;6.184;2023-06-14T15:03:37;2.60;;;1.23;;
50124;SDS011;36023;48.670;6.184;2023-06-14T15:06:03;1.13;;;0.95;;